Time;durP1;ratioP1;P1;durP2;ratioP2;P2;SDS_P1;SDS_P2;PMS_P1;PMS_P2;Temp;Humidity;BMP_temperature;BMP_pressure;BME280_temperature;BME280_humidity;BME280_pressure;Samples;Min_cycle;Max_cycle;Signal;HPM_P1;HPM_P2
2023/12/22 00:03:46;;;;;;;41.60;12.40;;;;;;;;;;31580362;28;20075;-72
2023/12/22 00:18:47;;;;;;;83.20;15.77;;;;;;;;;;31554695;28;20052;-73
2023/12/22 00:33:49;;;;;;;48.60;12.83;;;;;;;;;;31571556;28;20056;-73
2023/12/22 00:48:51;;;;;;;45.93;13.53;;;;;;;;;;31588489;28;20058;-73
2023/12/22 01:03:53;;;;;;;41.03;14.17;;;;;;;;;;31578241;28;20048;-73
2023/12/22 01:18:55;;;;;;;35.93;12.90;;;;;;;;;;31590098;28;20146;-74
2023/12/22 01:33:57;;;;;;;42.23;11.93;;;;;;;;;;31590654;28;20047;-73
2023/12/22 01:49:01;;;;;;;35.17;11.97;;;;;;;;;;31585156;28;20131;-73
2023/12/22 02:04:03;;;;;;;39.30;14.53;;;;;;;;;;31582169;28;20497;-74
2023/12/22 02:19:24;;;;;;;43.80;14.47;;;;;;;;;;31584100;28;20056;-73
2023/12/22 02:34:29;;;;;;;38.30;14.27;;;;;;;;;;31597980;28;20155;-74
2023/12/22 02:49:31;;;;;;;37.60;14.43;;;;;;;;;;31588158;28;20097;-74
2023/12/22 03:04:33;;;;;;;39.97;14.37;;;;;;;;;;31625137;28;20131;-74
2023/12/22 03:19:35;;;;;;;44.70;19.53;;;;;;;;;;31615765;28;20518;-73
2023/12/22 03:34:37;;;;;;;39.43;15.00;;;;;;;;;;31600151;28;20051;-73
2023/12/22 03:49:39;;;;;;;37.83;16.20;;;;;;;;;;31616040;28;20452;-74
2023/12/22 04:04:41;;;;;;;28.60;13.10;;;;;;;;;;31618960;28;20040;-74
2023/12/22 04:19:43;;;;;;;37.50;15.53;;;;;;;;;;31614027;28;20396;-74
2023/12/22 04:34:45;;;;;;;34.53;16.73;;;;;;;;;;31596046;28;20052;-79
2023/12/22 04:49:47;;;;;;;30.57;15.70;;;;;;;;;;31621311;28;20056;-80
2023/12/22 05:04:48;;;;;;;35.00;14.80;;;;;;;;;;31586710;28;20511;-80
2023/12/22 05:19:50;;;;;;;35.77;16.23;;;;;;;;;;31608855;28;20457;-80
2023/12/22 05:34:52;;;;;;;31.67;14.13;;;;;;;;;;31606895;28;20144;-72
2023/12/22 05:49:54;;;;;;;30.53;15.77;;;;;;;;;;31599199;28;20044;-74
2023/12/22 06:04:56;;;;;;;29.57;13.67;;;;;;;;;;31614564;28;20483;-80
2023/12/22 06:19:59;;;;;;;26.30;13.47;;;;;;;;;;31612021;28;20056;-80
2023/12/22 06:35:02;;;;;;;34.93;17.87;;;;;;;;;;31612890;28;20044;-78
2023/12/22 06:50:04;;;;;;;29.80;15.73;;;;;;;;;;31608307;28;20080;-79
2023/12/22 07:05:09;;;;;;;32.77;15.90;;;;;;;;;;31586701;28;20108;-80
2023/12/22 07:20:11;;;;;;;26.60;11.90;;;;;;;;;;31581641;28;20044;-79
2023/12/22 07:35:13;;;;;;;29.00;13.77;;;;;;;;;;31605733;28;20052;-79
2023/12/22 07:50:17;;;;;;;29.40;12.97;;;;;;;;;;31563910;28;20175;-72
2023/12/22 08:05:21;;;;;;;34.73;16.03;;;;;;;;;;31586716;28;20139;-75
2023/12/22 08:20:23;;;;;;;29.13;13.80;;;;;;;;;;31576912;28;20053;-79
2023/12/22 08:35:33;;;;;;;22.50;11.97;;;;;;;;;;31608370;28;20101;-78
2023/12/22 08:50:35;;;;;;;13.60;7.27;;;;;;;;;;31634525;28;20846;-79
2023/12/22 09:05:37;;;;;;;28.50;13.87;;;;;;;;;;31613365;28;20059;-79
2023/12/22 09:20:40;;;;;;;28.43;12.30;;;;;;;;;;31618811;28;20113;-83
2023/12/22 09:35:42;;;;;;;21.37;9.73;;;;;;;;;;31638978;28;20546;-79
2023/12/22 09:50:44;;;;;;;19.97;10.20;;;;;;;;;;31583104;28;20586;-76
2023/12/22 10:05:46;;;;;;;23.57;11.73;;;;;;;;;;31605183;28;20040;-85
2023/12/22 10:20:48;;;;;;;16.23;8.70;;;;;;;;;;31623674;28;20048;-75
2023/12/22 10:35:52;;;;;;;9.23;6.57;;;;;;;;;;31583786;28;20044;-79
2023/12/22 10:50:54;;;;;;;18.17;8.53;;;;;;;;;;31575946;28;20404;-77
2023/12/22 11:05:58;;;;;;;25.20;12.00;;;;;;;;;;31550474;28;20138;-79
2023/12/22 11:21:01;;;;;;;25.83;11.23;;;;;;;;;;31531749;28;20056;-81
2023/12/22 11:36:03;;;;;;;24.77;10.73;;;;;;;;;;31602989;28;20087;-80
2023/12/22 11:51:14;;;;;;;27.57;11.13;;;;;;;;;;31576522;28;20076;-79
2023/12/22 12:06:17;;;;;;;28.50;13.50;;;;;;;;;;31625551;28;20079;-80
2023/12/22 12:21:19;;;;;;;27.37;12.87;;;;;;;;;;31629307;28;20051;-82
2023/12/22 12:36:20;;;;;;;20.67;11.53;;;;;;;;;;31608408;28;20135;-80
2023/12/22 12:51:23;;;;;;;25.83;12.63;;;;;;;;;;31617700;28;20056;-81
2023/12/22 13:06:25;;;;;;;28.43;14.00;;;;;;;;;;31582571;28;20142;-81
2023/12/22 13:21:29;;;;;;;30.73;13.13;;;;;;;;;;31615212;28;20054;-79
2023/12/22 13:36:36;;;;;;;29.53;14.03;;;;;;;;;;31592712;28;20063;-79
2023/12/22 13:51:44;;;;;;;34.30;14.80;;;;;;;;;;31594864;28;20519;-78
2023/12/22 14:06:46;;;;;;;30.00;15.00;;;;;;;;;;31623195;28;20146;-79
2023/12/22 14:21:48;;;;;;;39.43;16.10;;;;;;;;;;31614764;28;20495;-80
2023/12/22 14:36:51;;;;;;;33.43;15.30;;;;;;;;;;31614587;28;20067;-75
2023/12/22 14:51:56;;;;;;;31.23;14.07;;;;;;;;;;31601802;28;20056;-79
2023/12/22 15:06:58;;;;;;;23.23;12.10;;;;;;;;;;31600845;28;20055;-76
2023/12/22 15:22:02;;;;;;;30.17;14.43;;;;;;;;;;31574608;28;20048;-77
2023/12/22 15:37:07;;;;;;;35.10;17.20;;;;;;;;;;31538880;28;20415;-78
2023/12/22 15:52:09;;;;;;;32.30;15.43;;;;;;;;;;31481938;28;20054;-75
2023/12/22 16:07:11;;;;;;;28.33;15.27;;;;;;;;;;31542963;28;20098;-75
2023/12/22 16:22:13;;;;;;;33.70;16.23;;;;;;;;;;31592744;28;20416;-75
2023/12/22 16:37:15;;;;;;;20.90;11.37;;;;;;;;;;31555411;28;20048;-74
2023/12/22 16:52:17;;;;;;;22.67;12.17;;;;;;;;;;31538026;28;20100;-79
2023/12/22 17:07:19;;;;;;;25.93;12.97;;;;;;;;;;31495605;28;20415;-78
2023/12/22 17:22:21;;;;;;;29.17;14.83;;;;;;;;;;31544798;28;20109;-76
2023/12/22 17:37:23;;;;;;;19.00;10.53;;;;;;;;;;31503255;28;20058;-78
2023/12/22 17:52:25;;;;;;;31.40;13.37;;;;;;;;;;31546359;28;20055;-75
2023/12/22 18:07:27;;;;;;;19.87;11.23;;;;;;;;;;31575486;28;20063;-77
2023/12/22 18:22:30;;;;;;;33.30;15.97;;;;;;;;;;31582194;28;20412;-74
2023/12/22 18:37:32;;;;;;;49.00;22.27;;;;;;;;;;31569550;28;20085;-79
2023/12/22 18:52:34;;;;;;;24.53;13.57;;;;;;;;;;31567768;28;20052;-74
2023/12/22 19:07:36;;;;;;;24.43;13.00;;;;;;;;;;31553483;28;20130;-77
2023/12/22 19:22:38;;;;;;;26.17;13.63;;;;;;;;;;31530771;28;20084;-78
2023/12/22 19:37:39;;;;;;;26.20;11.67;;;;;;;;;;31528646;28;20130;-75
2023/12/22 19:52:41;;;;;;;25.67;12.00;;;;;;;;;;31595323;28;20060;-79
2023/12/22 20:07:43;;;;;;;34.47;17.53;;;;;;;;;;31580225;28;20059;-76
2023/12/22 20:22:45;;;;;;;45.70;21.73;;;;;;;;;;31536675;28;20140;-76
2023/12/22 20:37:48;;;;;;;34.37;17.23;;;;;;;;;;31547297;28;20476;-77
2023/12/22 20:52:54;;;;;;;33.67;15.90;;;;;;;;;;31547995;28;20493;-76
2023/12/22 21:07:56;;;;;;;29.90;13.03;;;;;;;;;;31543292;28;20052;-78
2023/12/22 21:22:59;;;;;;;19.77;10.23;;;;;;;;;;31541689;28;20385;-78
2023/12/22 21:38:02;;;;;;;17.73;10.00;;;;;;;;;;31530279;28;20455;-78
2023/12/22 21:53:04;;;;;;;15.70;8.27;;;;;;;;;;31557671;28;20069;-78
2023/12/22 22:08:06;;;;;;;29.63;9.67;;;;;;;;;;31589489;28;20056;-77
2023/12/22 22:23:08;;;;;;;27.23;10.23;;;;;;;;;;31596859;28;20048;-74
2023/12/22 22:38:10;;;;;;;20.63;9.37;;;;;;;;;;31578884;28;20040;-73
2023/12/22 22:53:12;;;;;;;23.90;11.53;;;;;;;;;;31558784;28;20056;-73
2023/12/22 23:08:14;;;;;;;25.30;12.07;;;;;;;;;;31603323;28;20487;-73
2023/12/22 23:23:16;;;;;;;27.63;13.10;;;;;;;;;;31609490;28;20551;-76
2023/12/22 23:38:18;;;;;;;30.80;13.17;;;;;;;;;;31619010;28;20139;-74
2023/12/22 23:53:20;;;;;;;31.43;13.53;;;;;;;;;;31620833;28;20055;-74
